sensor_id;sensor_type;location;lat;lon;timestamp;P1;durP1;ratioP1;P2;durP2;ratioP2
5418;SDS011;2732;52.092;11.556;2023-02-22T00:03:48;41.03;;;17.17;;
5418;SDS011;2732;52.092;11.556;2023-02-22T00:08:50;34.93;;;15.47;;
5418;SDS011;2732;52.092;11.556;2023-02-22T00:13:52;42.20;;;17.20;;
5418;SDS011;2732;52.092;11.556;2023-02-22T00:18:56;41.57;;;16.97;;
5418;SDS011;2732;52.092;11.556;2023-02-22T00:23:56;33.97;;;16.40;;
5418;SDS011;2732;52.092;11.556;2023-02-22T00:28:57;38.27;;;16.10;;
5418;SDS011;2732;52.092;11.556;2023-02-22T00:33:57;42.57;;;17.83;;
5418;SDS011;2732;52.092;11.556;2023-02-22T00:38:59;45.50;;;17.90;;
5418;SDS011;2732;52.092;11.556;2023-02-22T00:44:00;33.47;;;15.70;;
5418;SDS011;2732;52.092;11.556;2023-02-22T00:49:00;38.73;;;15.67;;
5418;SDS011;2732;52.092;11.556;2023-02-22T00:54:01;38.40;;;15.77;;
5418;SDS011;2732;52.092;11.556;2023-02-22T00:59:02;41.73;;;16.00;;
5418;SDS011;2732;52.092;11.556;2023-02-22T01:04:03;52.30;;;18.97;;
5418;SDS011;2732;52.092;11.556;2023-02-22T01:09:05;45.33;;;18.87;;
5418;SDS011;2732;52.092;11.556;2023-02-22T01:14:06;44.53;;;19.13;;
5418;SDS011;2732;52.092;11.556;2023-02-22T01:19:08;48.97;;;18.47;;
5418;SDS011;2732;52.092;11.556;2023-02-22T01:24:10;50.00;;;18.47;;
5418;SDS011;2732;52.092;11.556;2023-02-22T01:29:15;46.10;;;17.63;;
5418;SDS011;2732;52.092;11.556;2023-02-22T01:34:18;43.53;;;18.93;;
5418;SDS011;2732;52.092;11.556;2023-02-22T01:39:20;47.27;;;19.27;;
5418;SDS011;2732;52.092;11.556;2023-02-22T01:49:33;46.50;;;18.37;;
5418;SDS011;2732;52.092;11.556;2023-02-22T01:54:44;41.80;;;18.30;;
5418;SDS011;2732;52.092;11.556;2023-02-22T01:59:54;49.53;;;17.87;;
5418;SDS011;2732;52.092;11.556;2023-02-22T02:04:59;58.87;;;20.60;;
5418;SDS011;2732;52.092;11.556;2023-02-22T02:10:01;48.50;;;20.50;;
5418;SDS011;2732;52.092;11.556;2023-02-22T02:15:25;46.40;;;17.13;;
5418;SDS011;2732;52.092;11.556;2023-02-22T02:20:38;49.80;;;17.97;;
5418;SDS011;2732;52.092;11.556;2023-02-22T02:26:29;53.33;;;19.73;;
5418;SDS011;2732;52.092;11.556;2023-02-22T02:37:46;46.23;;;18.63;;
5418;SDS011;2732;52.092;11.556;2023-02-22T02:48:28;43.23;;;18.30;;
5418;SDS011;2732;52.092;11.556;2023-02-22T02:53:34;50.10;;;19.30;;
5418;SDS011;2732;52.092;11.556;2023-02-22T02:58:46;46.77;;;19.40;;
5418;SDS011;2732;52.092;11.556;2023-02-22T03:04:09;51.73;;;17.73;;
5418;SDS011;2732;52.092;11.556;2023-02-22T03:14:37;45.13;;;17.70;;
5418;SDS011;2732;52.092;11.556;2023-02-22T03:26:06;39.53;;;16.40;;
5418;SDS011;2732;52.092;11.556;2023-02-22T03:31:12;38.70;;;15.67;;
5418;SDS011;2732;52.092;11.556;2023-02-22T03:36:19;52.90;;;19.50;;
5418;SDS011;2732;52.092;11.556;2023-02-22T03:41:25;44.73;;;19.30;;
5418;SDS011;2732;52.092;11.556;2023-02-22T03:46:27;53.67;;;19.23;;
5418;SDS011;2732;52.092;11.556;2023-02-22T03:51:29;44.90;;;18.03;;
5418;SDS011;2732;52.092;11.556;2023-02-22T03:56:30;43.20;;;19.07;;
5418;SDS011;2732;52.092;11.556;2023-02-22T04:01:38;42.10;;;17.10;;
5418;SDS011;2732;52.092;11.556;2023-02-22T04:06:39;49.03;;;18.07;;
5418;SDS011;2732;52.092;11.556;2023-02-22T04:11:40;54.53;;;19.50;;
5418;SDS011;2732;52.092;11.556;2023-02-22T04:16:40;43.90;;;17.87;;
5418;SDS011;2732;52.092;11.556;2023-02-22T04:21:41;49.77;;;18.43;;
5418;SDS011;2732;52.092;11.556;2023-02-22T04:26:42;46.70;;;18.80;;
5418;SDS011;2732;52.092;11.556;2023-02-22T04:31:42;45.70;;;18.40;;
5418;SDS011;2732;52.092;11.556;2023-02-22T04:36:43;49.80;;;18.37;;
5418;SDS011;2732;52.092;11.556;2023-02-22T04:41:44;47.10;;;17.70;;
5418;SDS011;2732;52.092;11.556;2023-02-22T04:46:46;43.57;;;16.20;;
5418;SDS011;2732;52.092;11.556;2023-02-22T04:51:46;45.30;;;17.30;;
5418;SDS011;2732;52.092;11.556;2023-02-22T04:56:47;52.00;;;18.17;;
5418;SDS011;2732;52.092;11.556;2023-02-22T05:01:48;36.33;;;15.93;;
5418;SDS011;2732;52.092;11.556;2023-02-22T05:06:48;55.07;;;18.13;;
5418;SDS011;2732;52.092;11.556;2023-02-22T05:11:49;39.63;;;16.30;;
5418;SDS011;2732;52.092;11.556;2023-02-22T05:16:50;38.60;;;14.60;;
5418;SDS011;2732;52.092;11.556;2023-02-22T05:21:50;44.70;;;16.90;;
5418;SDS011;2732;52.092;11.556;2023-02-22T05:26:51;43.70;;;16.10;;
5418;SDS011;2732;52.092;11.556;2023-02-22T05:31:52;36.60;;;16.70;;
5418;SDS011;2732;52.092;11.556;2023-02-22T05:36:52;41.93;;;16.93;;
5418;SDS011;2732;52.092;11.556;2023-02-22T05:41:53;40.53;;;14.47;;
5418;SDS011;2732;52.092;11.556;2023-02-22T05:46:53;43.13;;;16.03;;
5418;SDS011;2732;52.092;11.556;2023-02-22T05:51:54;39.20;;;17.00;;
5418;SDS011;2732;52.092;11.556;2023-02-22T05:56:59;47.20;;;17.90;;
5418;SDS011;2732;52.092;11.556;2023-02-22T06:02:00;52.07;;;17.03;;
5418;SDS011;2732;52.092;11.556;2023-02-22T06:07:01;42.53;;;17.43;;
5418;SDS011;2732;52.092;11.556;2023-02-22T06:12:01;46.17;;;18.70;;
5418;SDS011;2732;52.092;11.556;2023-02-22T06:17:02;44.77;;;16.40;;
5418;SDS011;2732;52.092;11.556;2023-02-22T06:22:04;42.97;;;17.37;;
5418;SDS011;2732;52.092;11.556;2023-02-22T06:27:05;41.20;;;18.10;;
5418;SDS011;2732;52.092;11.556;2023-02-22T06:32:07;55.80;;;20.40;;
5418;SDS011;2732;52.092;11.556;2023-02-22T06:37:07;47.13;;;18.17;;
5418;SDS011;2732;52.092;11.556;2023-02-22T06:42:08;54.60;;;20.37;;
5418;SDS011;2732;52.092;11.556;2023-02-22T06:47:08;59.10;;;22.27;;
5418;SDS011;2732;52.092;11.556;2023-02-22T06:52:09;65.43;;;24.37;;
5418;SDS011;2732;52.092;11.556;2023-02-22T06:57:10;72.00;;;24.50;;
5418;SDS011;2732;52.092;11.556;2023-02-22T07:02:10;64.00;;;23.80;;
5418;SDS011;2732;52.092;11.556;2023-02-22T07:07:12;59.73;;;22.23;;
5418;SDS011;2732;52.092;11.556;2023-02-22T07:12:12;50.50;;;19.00;;
5418;SDS011;2732;52.092;11.556;2023-02-22T07:17:13;71.57;;;22.20;;
5418;SDS011;2732;52.092;11.556;2023-02-22T07:22:13;62.93;;;20.40;;
5418;SDS011;2732;52.092;11.556;2023-02-22T07:27:14;54.27;;;20.13;;
5418;SDS011;2732;52.092;11.556;2023-02-22T07:32:15;69.23;;;22.80;;
5418;SDS011;2732;52.092;11.556;2023-02-22T07:37:15;52.80;;;20.73;;
5418;SDS011;2732;52.092;11.556;2023-02-22T07:42:16;47.10;;;19.00;;
5418;SDS011;2732;52.092;11.556;2023-02-22T07:47:19;57.87;;;19.07;;
5418;SDS011;2732;52.092;11.556;2023-02-22T07:52:20;50.83;;;19.50;;
5418;SDS011;2732;52.092;11.556;2023-02-22T07:57:21;55.43;;;20.20;;
5418;SDS011;2732;52.092;11.556;2023-02-22T08:02:23;52.23;;;20.30;;
5418;SDS011;2732;52.092;11.556;2023-02-22T08:07:25;48.63;;;19.80;;
5418;SDS011;2732;52.092;11.556;2023-02-22T08:12:25;54.80;;;20.67;;
5418;SDS011;2732;52.092;11.556;2023-02-22T08:17:26;53.97;;;21.77;;
5418;SDS011;2732;52.092;11.556;2023-02-22T08:22:27;62.23;;;22.03;;
5418;SDS011;2732;52.092;11.556;2023-02-22T08:27:28;61.20;;;22.70;;
5418;SDS011;2732;52.092;11.556;2023-02-22T08:32:29;61.73;;;22.50;;
5418;SDS011;2732;52.092;11.556;2023-02-22T08:37:30;52.80;;;20.90;;
5418;SDS011;2732;52.092;11.556;2023-02-22T08:42:30;64.33;;;21.80;;
5418;SDS011;2732;52.092;11.556;2023-02-22T08:47:31;63.63;;;21.47;;
5418;SDS011;2732;52.092;11.556;2023-02-22T08:52:31;54.83;;;21.10;;
5418;SDS011;2732;52.092;11.556;2023-02-22T08:57:32;61.37;;;21.33;;
5418;SDS011;2732;52.092;11.556;2023-02-22T09:02:33;47.80;;;19.20;;
5418;SDS011;2732;52.092;11.556;2023-02-22T09:07:33;57.03;;;20.50;;
5418;SDS011;2732;52.092;11.556;2023-02-22T09:12:34;48.13;;;17.33;;
5418;SDS011;2732;52.092;11.556;2023-02-22T09:17:34;62.23;;;20.50;;
5418;SDS011;2732;52.092;11.556;2023-02-22T09:22:36;54.33;;;20.70;;
5418;SDS011;2732;52.092;11.556;2023-02-22T09:27:40;44.97;;;18.53;;
5418;SDS011;2732;52.092;11.556;2023-02-22T09:32:42;52.93;;;19.90;;
5418;SDS011;2732;52.092;11.556;2023-02-22T09:37:43;49.23;;;19.27;;
5418;SDS011;2732;52.092;11.556;2023-02-22T09:42:46;42.73;;;18.13;;
5418;SDS011;2732;52.092;11.556;2023-02-22T09:48:31;54.20;;;20.17;;
5418;SDS011;2732;52.092;11.556;2023-02-22T09:53:37;41.30;;;16.50;;
5418;SDS011;2732;52.092;11.556;2023-02-22T09:58:47;38.47;;;17.13;;
5418;SDS011;2732;52.092;11.556;2023-02-22T10:04:04;38.73;;;15.47;;
5418;SDS011;2732;52.092;11.556;2023-02-22T10:09:26;44.37;;;17.33;;
5418;SDS011;2732;52.092;11.556;2023-02-22T10:20:34;36.40;;;16.60;;
5418;SDS011;2732;52.092;11.556;2023-02-22T10:31:15;27.70;;;11.50;;
5418;SDS011;2732;52.092;11.556;2023-02-22T10:36:42;35.13;;;14.07;;
5418;SDS011;2732;52.092;11.556;2023-02-22T10:41:49;30.37;;;15.23;;
5418;SDS011;2732;52.092;11.556;2023-02-22T10:46:53;31.87;;;14.00;;
5418;SDS011;2732;52.092;11.556;2023-02-22T10:51:58;26.83;;;13.90;;
5418;SDS011;2732;52.092;11.556;2023-02-22T10:57:03;21.23;;;11.03;;
5418;SDS011;2732;52.092;11.556;2023-02-22T11:02:08;18.90;;;10.90;;
5418;SDS011;2732;52.092;11.556;2023-02-22T11:07:24;19.40;;;10.10;;
5418;SDS011;2732;52.092;11.556;2023-02-22T11:12:32;21.00;;;9.93;;
5418;SDS011;2732;52.092;11.556;2023-02-22T11:17:39;17.00;;;10.73;;
5418;SDS011;2732;52.092;11.556;2023-02-22T11:22:40;18.40;;;9.40;;
5418;SDS011;2732;52.092;11.556;2023-02-22T11:27:42;16.30;;;8.57;;
5418;SDS011;2732;52.092;11.556;2023-02-22T11:32:55;15.63;;;9.40;;
5418;SDS011;2732;52.092;11.556;2023-02-22T11:43:25;15.53;;;8.93;;
5418;SDS011;2732;52.092;11.556;2023-02-22T11:48:26;16.50;;;10.70;;
5418;SDS011;2732;52.092;11.556;2023-02-22T11:59:46;17.77;;;8.60;;
5418;SDS011;2732;52.092;11.556;2023-02-22T12:05:26;24.87;;;13.27;;
5418;SDS011;2732;52.092;11.556;2023-02-22T12:16:36;14.20;;;8.30;;
5418;SDS011;2732;52.092;11.556;2023-02-22T12:22:03;17.40;;;8.53;;
5418;SDS011;2732;52.092;11.556;2023-02-22T12:27:22;17.70;;;10.40;;
5418;SDS011;2732;52.092;11.556;2023-02-22T12:32:45;13.30;;;8.37;;
5418;SDS011;2732;52.092;11.556;2023-02-22T12:38:13;15.07;;;7.60;;
5418;SDS011;2732;52.092;11.556;2023-02-22T12:43:26;10.30;;;7.60;;
5418;SDS011;2732;52.092;11.556;2023-02-22T12:54:31;13.43;;;9.37;;
5418;SDS011;2732;52.092;11.556;2023-02-22T12:59:52;19.03;;;10.93;;
5418;SDS011;2732;52.092;11.556;2023-02-22T13:05:17;13.67;;;9.70;;
5418;SDS011;2732;52.092;11.556;2023-02-22T13:43:39;18.63;;;9.90;;
5418;SDS011;2732;52.092;11.556;2023-02-22T13:59:40;14.30;;;9.17;;
5418;SDS011;2732;52.092;11.556;2023-02-22T14:04:40;15.73;;;9.07;;
5418;SDS011;2732;52.092;11.556;2023-02-22T14:09:52;15.90;;;8.90;;
5418;SDS011;2732;52.092;11.556;2023-02-22T14:15:07;18.87;;;10.90;;
5418;SDS011;2732;52.092;11.556;2023-02-22T14:20:20;14.17;;;9.03;;
5418;SDS011;2732;52.092;11.556;2023-02-22T14:25:35;18.67;;;10.47;;
5418;SDS011;2732;52.092;11.556;2023-02-22T14:30:40;14.50;;;9.03;;
5418;SDS011;2732;52.092;11.556;2023-02-22T14:35:41;13.90;;;9.40;;
5418;SDS011;2732;52.092;11.556;2023-02-22T14:40:43;13.70;;;7.47;;
5418;SDS011;2732;52.092;11.556;2023-02-22T14:45:48;17.37;;;9.77;;
5418;SDS011;2732;52.092;11.556;2023-02-22T14:50:54;21.20;;;10.97;;
5418;SDS011;2732;52.092;11.556;2023-02-22T14:56:08;15.37;;;9.20;;
5418;SDS011;2732;52.092;11.556;2023-02-22T15:01:29;19.30;;;11.57;;
5418;SDS011;2732;52.092;11.556;2023-02-22T15:06:36;22.77;;;11.40;;
5418;SDS011;2732;52.092;11.556;2023-02-22T15:11:36;19.87;;;11.50;;
5418;SDS011;2732;52.092;11.556;2023-02-22T15:16:37;21.00;;;11.90;;
5418;SDS011;2732;52.092;11.556;2023-02-22T15:21:47;17.93;;;10.73;;
5418;SDS011;2732;52.092;11.556;2023-02-22T15:26:51;19.77;;;11.77;;
5418;SDS011;2732;52.092;11.556;2023-02-22T15:31:52;21.73;;;11.13;;
5418;SDS011;2732;52.092;11.556;2023-02-22T15:36:57;24.93;;;11.83;;
5418;SDS011;2732;52.092;11.556;2023-02-22T15:42:24;18.53;;;11.13;;
5418;SDS011;2732;52.092;11.556;2023-02-22T15:47:27;20.77;;;12.63;;
5418;SDS011;2732;52.092;11.556;2023-02-22T15:52:30;22.87;;;12.10;;
5418;SDS011;2732;52.092;11.556;2023-02-22T15:57:32;20.00;;;11.47;;
5418;SDS011;2732;52.092;11.556;2023-02-22T16:02:35;20.17;;;13.13;;
5418;SDS011;2732;52.092;11.556;2023-02-22T16:07:44;27.67;;;14.07;;
5418;SDS011;2732;52.092;11.556;2023-02-22T16:12:48;25.63;;;14.30;;
5418;SDS011;2732;52.092;11.556;2023-02-22T16:17:48;26.50;;;14.70;;
5418;SDS011;2732;52.092;11.556;2023-02-22T16:22:49;29.73;;;15.47;;
5418;SDS011;2732;52.092;11.556;2023-02-22T16:27:54;29.70;;;14.53;;
5418;SDS011;2732;52.092;11.556;2023-02-22T16:33:03;26.50;;;16.10;;
5418;SDS011;2732;52.092;11.556;2023-02-22T16:38:12;30.20;;;15.47;;
5418;SDS011;2732;52.092;11.556;2023-02-22T16:43:21;38.67;;;18.10;;
5418;SDS011;2732;52.092;11.556;2023-02-22T16:48:32;32.03;;;14.60;;
5418;SDS011;2732;52.092;11.556;2023-02-22T16:53:37;32.10;;;16.33;;
5418;SDS011;2732;52.092;11.556;2023-02-22T16:58:38;29.17;;;15.60;;
5418;SDS011;2732;52.092;11.556;2023-02-22T17:03:41;26.13;;;15.67;;
5418;SDS011;2732;52.092;11.556;2023-02-22T17:08:42;28.00;;;14.47;;
5418;SDS011;2732;52.092;11.556;2023-02-22T17:13:44;35.53;;;15.77;;
5418;SDS011;2732;52.092;11.556;2023-02-22T17:18:46;26.80;;;16.30;;
5418;SDS011;2732;52.092;11.556;2023-02-22T17:23:48;26.43;;;13.97;;
5418;SDS011;2732;52.092;11.556;2023-02-22T17:28:49;26.50;;;14.37;;
5418;SDS011;2732;52.092;11.556;2023-02-22T17:33:51;28.70;;;16.13;;
5418;SDS011;2732;52.092;11.556;2023-02-22T17:39:02;28.90;;;15.43;;
5418;SDS011;2732;52.092;11.556;2023-02-22T17:44:04;38.23;;;20.50;;
5418;SDS011;2732;52.092;11.556;2023-02-22T17:49:05;30.40;;;16.10;;
5418;SDS011;2732;52.092;11.556;2023-02-22T17:54:06;28.40;;;17.47;;
5418;SDS011;2732;52.092;11.556;2023-02-22T17:59:07;32.03;;;17.20;;
5418;SDS011;2732;52.092;11.556;2023-02-22T18:04:08;35.93;;;18.47;;
5418;SDS011;2732;52.092;11.556;2023-02-22T18:09:08;37.07;;;18.20;;
5418;SDS011;2732;52.092;11.556;2023-02-22T18:14:09;39.97;;;20.10;;
5418;SDS011;2732;52.092;11.556;2023-02-22T18:19:11;36.90;;;17.93;;
5418;SDS011;2732;52.092;11.556;2023-02-22T18:24:11;32.60;;;20.03;;
5418;SDS011;2732;52.092;11.556;2023-02-22T18:29:12;31.90;;;15.90;;
5418;SDS011;2732;52.092;11.556;2023-02-22T18:34:13;25.70;;;15.13;;
5418;SDS011;2732;52.092;11.556;2023-02-22T18:39:14;36.53;;;15.40;;
5418;SDS011;2732;52.092;11.556;2023-02-22T18:44:15;28.20;;;14.87;;
5418;SDS011;2732;52.092;11.556;2023-02-22T18:49:17;29.80;;;15.47;;
5418;SDS011;2732;52.092;11.556;2023-02-22T18:54:17;30.07;;;15.27;;
5418;SDS011;2732;52.092;11.556;2023-02-22T18:59:21;23.30;;;12.93;;
5418;SDS011;2732;52.092;11.556;2023-02-22T19:04:22;28.33;;;13.47;;
5418;SDS011;2732;52.092;11.556;2023-02-22T19:09:24;29.47;;;14.97;;
5418;SDS011;2732;52.092;11.556;2023-02-22T19:14:24;30.47;;;15.67;;
5418;SDS011;2732;52.092;11.556;2023-02-22T19:19:25;23.87;;;14.07;;
5418;SDS011;2732;52.092;11.556;2023-02-22T19:24:25;26.60;;;13.50;;
5418;SDS011;2732;52.092;11.556;2023-02-22T19:29:27;28.73;;;14.53;;
5418;SDS011;2732;52.092;11.556;2023-02-22T19:34:30;25.93;;;13.83;;
5418;SDS011;2732;52.092;11.556;2023-02-22T19:39:31;27.13;;;13.90;;
5418;SDS011;2732;52.092;11.556;2023-02-22T19:44:32;25.97;;;12.23;;
5418;SDS011;2732;52.092;11.556;2023-02-22T19:49:36;21.20;;;11.80;;
5418;SDS011;2732;52.092;11.556;2023-02-22T19:54:37;23.13;;;10.83;;
5418;SDS011;2732;52.092;11.556;2023-02-22T19:59:37;28.87;;;10.73;;
5418;SDS011;2732;52.092;11.556;2023-02-22T20:04:40;31.90;;;12.03;;
5418;SDS011;2732;52.092;11.556;2023-02-22T20:09:41;26.43;;;10.40;;
5418;SDS011;2732;52.092;11.556;2023-02-22T20:14:42;20.60;;;9.93;;
5418;SDS011;2732;52.092;11.556;2023-02-22T20:19:45;19.23;;;8.07;;
5418;SDS011;2732;52.092;11.556;2023-02-22T20:24:47;19.90;;;8.47;;
5418;SDS011;2732;52.092;11.556;2023-02-22T20:29:48;21.77;;;8.23;;
5418;SDS011;2732;52.092;11.556;2023-02-22T20:34:49;19.70;;;7.47;;
5418;SDS011;2732;52.092;11.556;2023-02-22T20:39:50;21.77;;;8.17;;
5418;SDS011;2732;52.092;11.556;2023-02-22T20:44:50;18.63;;;8.73;;
5418;SDS011;2732;52.092;11.556;2023-02-22T20:49:51;16.23;;;7.17;;
5418;SDS011;2732;52.092;11.556;2023-02-22T20:54:52;29.27;;;7.30;;
5418;SDS011;2732;52.092;11.556;2023-02-22T20:59:52;17.50;;;7.60;;
5418;SDS011;2732;52.092;11.556;2023-02-22T21:04:53;18.47;;;7.57;;
5418;SDS011;2732;52.092;11.556;2023-02-22T21:09:54;12.57;;;7.20;;
5418;SDS011;2732;52.092;11.556;2023-02-22T21:14:55;20.73;;;6.93;;
5418;SDS011;2732;52.092;11.556;2023-02-22T21:19:56;20.73;;;7.10;;
5418;SDS011;2732;52.092;11.556;2023-02-22T21:24:57;17.93;;;6.73;;
5418;SDS011;2732;52.092;11.556;2023-02-22T21:29:58;13.80;;;7.07;;
5418;SDS011;2732;52.092;11.556;2023-02-22T21:35:00;21.17;;;7.13;;
5418;SDS011;2732;52.092;11.556;2023-02-22T21:40:03;16.33;;;6.97;;
5418;SDS011;2732;52.092;11.556;2023-02-22T21:45:10;15.80;;;7.57;;
5418;SDS011;2732;52.092;11.556;2023-02-22T21:50:15;15.90;;;6.67;;
5418;SDS011;2732;52.092;11.556;2023-02-22T21:55:17;10.93;;;5.97;;
5418;SDS011;2732;52.092;11.556;2023-02-22T22:00:18;15.40;;;6.77;;
5418;SDS011;2732;52.092;11.556;2023-02-22T22:11:47;17.73;;;6.53;;
5418;SDS011;2732;52.092;11.556;2023-02-22T22:16:57;19.40;;;7.70;;
5418;SDS011;2732;52.092;11.556;2023-02-22T22:22:01;13.87;;;6.57;;
5418;SDS011;2732;52.092;11.556;2023-02-22T22:27:02;13.53;;;6.40;;
5418;SDS011;2732;52.092;11.556;2023-02-22T22:32:05;17.43;;;7.23;;
5418;SDS011;2732;52.092;11.556;2023-02-22T22:37:06;15.97;;;6.60;;
5418;SDS011;2732;52.092;11.556;2023-02-22T22:42:07;14.63;;;6.60;;
5418;SDS011;2732;52.092;11.556;2023-02-22T22:47:08;20.43;;;6.67;;
5418;SDS011;2732;52.092;11.556;2023-02-22T22:52:13;18.40;;;6.60;;
5418;SDS011;2732;52.092;11.556;2023-02-22T22:57:15;23.83;;;7.33;;
5418;SDS011;2732;52.092;11.556;2023-02-22T23:02:16;22.10;;;7.07;;
5418;SDS011;2732;52.092;11.556;2023-02-22T23:07:20;19.40;;;7.73;;
5418;SDS011;2732;52.092;11.556;2023-02-22T23:12:21;25.20;;;6.47;;
5418;SDS011;2732;52.092;11.556;2023-02-22T23:17:30;21.03;;;6.13;;
5418;SDS011;2732;52.092;11.556;2023-02-22T23:22:40;21.20;;;6.47;;
5418;SDS011;2732;52.092;11.556;2023-02-22T23:27:46;19.77;;;6.57;;
5418;SDS011;2732;52.092;11.556;2023-02-22T23:32:48;15.70;;;6.60;;
5418;SDS011;2732;52.092;11.556;2023-02-22T23:37:49;21.17;;;6.33;;
5418;SDS011;2732;52.092;11.556;2023-02-22T23:42:52;18.03;;;5.27;;
5418;SDS011;2732;52.092;11.556;2023-02-22T23:47:56;18.87;;;6.30;;
5418;SDS011;2732;52.092;11.556;2023-02-22T23:53:00;14.80;;;5.97;;
5418;SDS011;2732;52.092;11.556;2023-02-22T23:58:02;16.97;;;5.87;;
